LGRP/RHO METAR and TAF weather

Enter ICAO airport designator
Station Type Date Time Source
LGRP METAR 2019/08/22 04:20 UTC NOAA

LGRP 220420Z 24005KT CAVOK 27/19 Q1009 NOSIG


Station Type Date Time Source
LGRP Decoded METAR 2019/08/22 04:20 UTC NOAA

Station name not available
Aug 22, 2019 - 12:20 AM EDT / 2019.08.22 0420 UTC
Wind: from the WSW (240 degrees) at 6 MPH (5 KT):0
Visibility: greater than 7 mile(s):0
Temperature: 80 F (27 C)
Dew Point: 66 F (19 C)
Relative Humidity: 61%
Pressure (altimeter): 29.80 in. Hg (1009 hPa)
ob: LGRP 220420Z 24005KT CAVOK 27/19 Q1009 NOSIG
cycle: 4

Station Type Date Time Source
LGRP TAF 2019/08/21 18:16 UTC NOAA

TAF LGRP 211700Z 2118/2218 24012KT 9999 FEW025

Example: see airport list